Warren, AR (71671)

12:33 AM CDT on July 23, 2014 (GMT -0500)
Hwy 172 (KARMONTI2) Elev 246 ft | 33.55 °N, 91.82 °W | Change Station

Current weather conditions updated 2 minutes ago

Clear
Clear
71.1 °F
Feels Like 75 °F
N
0.0
Wind Variable Wind from South
Gusts 0.0 mph

Today is forecast to be Warmer than yesterday.

Today
High -- | Low -- °F
--% Chance of Precip.
Yesterday
High -- | Low -- °F
Precip. -- in
6:14 AM 8:14 PM
Waning Crescent, 12% visible
Pressure 30.06 in
Visibility 6.0 miles
Clouds Clear
Heat Index 75 °F
Dew Point 59 °F
Humidity 66%
Rainfall -9999.00 in
Snow Depth Not available.
UV 0 out of 12
Pollen 3.60 out of 12
Air Quality Not available.
Flu Activity Not available.
METAR KLLQ 230453Z AUTO 00000KT 6SM BR CLR 23/22 A3007 RMK AO2 SLP178 T02280217

More Conditions Fewer Conditions

Pressure 30.06 in
Visibility 6.0 miles
Clouds Clear
Heat Index 75 °F
Dew Point 59 °F
Humidity 66%
Rainfall -9999.00 in
Snow Depth Not available.
UV 0 out of 12
Pollen 3.60 out of 12
Air Quality Not available.
Flu Activity Not available.
METAR KLLQ 230453Z AUTO 00000KT 6SM BR CLR 23/22 A3007 RMK AO2 SLP178 T02280217

More Conditions Fewer Conditions

10-Day Weather Forecast

Almanac

Astronomy

Jul. 23, 2014 Rise Set
Actual Time 6:14 AM CDT 8:14 PM CDT
Civil Twilight 5:46 AM CDT 8:42 PM CDT
Nautical Twilight 5:12 AM CDT 9:16 PM CDT
Astronomical Twilight 4:36 AM CDT 9:52 PM CDT
Moon 3:32 AM CDT 5:44 PM CDT
Length of Visible Light 14h 56m
Length of Day
14h 00m
Tomorrow will be 1m 18s shorter.
Waning Crescent, 12% of the Moon is Illuminated
Today
Waning Crescent
Jul 26
New
Aug 3
First Quarter
Aug 10
Full
Aug 17
Last Quarter

Today's Extremes

State Highs State Lows

Community

WunderPhotos

Upload Photos

1,736,513 photos uploaded!

Nearby

Snow Depth

Station Depth Elevation
No new snow has been reported.

Earthquake Activity

City Distance Mag. Time & Date
No recent earthquake activity has been reported nearby.
Minimum magnitude displayed is 2.5.

Coastal Water Temperatures

Place Temperature
No Stations Reporting

Nearby Weather Stations

Station Location Temp. Heat Index Dew Point Humidity Wind Precip. Elev Updated Type
Hwy 172, Monticello, AR 71.1 °F 75 °F 59 °F 66% South  at  0.0 mph 0.00 in / hr 246 ft 12:30 AM CDT Normal
RAWS UAM AR, Monticello, AR 73 °F - 73 °F 100% North  at  0 mph 0.00 in / hr 183 ft 11:00 PM CDT MADIS
MesoWest SALINE , Fordyce, AR 73 °F 71 °F - - North  at  - 0.00 in / hr 198 ft 11:25 PM CDT MADIS
Hampton, AR, Hampton, AR 74.3 °F 71 °F 73 °F 97% East  at  0.0 mph 0.00 in / hr 200 ft 10:57 PM CDT Rapid Fire

Show More Stations Show Fewer Stations